createdAt,value
2018-06-09T00:01:13.613Z,23.03
2018-06-09T00:03:42.692Z,23.00
2018-06-09T00:06:11.788Z,22.90
2018-06-09T00:08:40.896Z,22.88
2018-06-09T00:11:10.012Z,22.89
2018-06-09T00:13:39.095Z,22.86
2018-06-09T00:16:08.200Z,22.82
2018-06-09T00:18:37.280Z,22.79
2018-06-09T00:21:06.388Z,22.75
2018-06-09T00:23:35.476Z,22.58
2018-06-09T00:26:04.581Z,22.51
2018-06-09T00:28:33.672Z,22.54
2018-06-09T00:31:02.787Z,22.59
2018-06-09T00:33:31.877Z,22.61
2018-06-09T00:36:00.998Z,22.65
2018-06-09T00:38:30.080Z,22.66
2018-06-09T00:40:59.185Z,22.66
2018-06-09T00:43:28.292Z,22.62
2018-06-09T00:45:57.376Z,22.61
2018-06-09T00:48:26.485Z,22.56
2018-06-09T00:50:55.564Z,22.55
2018-06-09T00:53:24.673Z,22.50
2018-06-09T00:56:03.811Z,22.42
2018-06-09T00:58:32.904Z,22.34
2018-06-09T01:01:01.992Z,22.35
2018-06-09T01:03:31.097Z,22.39
2018-06-09T01:06:00.177Z,22.46
2018-06-09T01:08:29.288Z,22.42
2018-06-09T01:10:58.368Z,22.32
2018-06-09T01:13:27.472Z,22.26
2018-06-09T01:15:56.559Z,22.27
2018-06-09T01:18:25.659Z,22.25
2018-06-09T01:20:54.723Z,22.28
2018-06-09T01:23:23.828Z,22.29
2018-06-09T01:25:52.912Z,22.36
2018-06-09T01:28:22.008Z,22.38
2018-06-09T01:30:51.094Z,22.42
2018-06-09T01:33:20.195Z,22.37
2018-06-09T01:35:49.273Z,22.33
2018-06-09T01:38:18.384Z,22.28
2018-06-09T01:40:47.459Z,22.22
2018-06-09T01:43:16.568Z,22.21
2018-06-09T01:45:45.650Z,22.10
2018-06-09T01:48:14.744Z,21.94
2018-06-09T01:50:43.832Z,21.90
2018-06-09T01:53:12.944Z,22.00
2018-06-09T01:55:42.029Z,22.09
2018-06-09T01:58:11.132Z,22.04
2018-06-09T02:00:40.204Z,22.00
2018-06-09T02:03:09.316Z,22.03
2018-06-09T02:05:38.392Z,22.08
2018-06-09T02:08:07.484Z,22.09
2018-06-09T02:10:36.585Z,22.08
2018-06-09T02:13:05.704Z,22.08
2018-06-09T02:15:34.811Z,22.02
2018-06-09T02:18:03.895Z,22.08
2018-06-09T02:20:33.007Z,22.06
2018-06-09T02:23:02.081Z,21.98
2018-06-09T02:25:31.182Z,21.94
2018-06-09T02:28:00.301Z,21.92
2018-06-09T02:30:29.369Z,21.90
2018-06-09T02:32:58.461Z,21.96
2018-06-09T02:35:27.572Z,21.94
2018-06-09T02:37:56.627Z,21.99
2018-06-09T02:40:25.724Z,21.93
2018-06-09T02:42:54.835Z,21.90
2018-06-09T02:45:23.936Z,21.98
2018-06-09T02:47:53.012Z,21.98
2018-06-09T02:50:22.111Z,21.90
2018-06-09T02:52:51.198Z,21.89
2018-06-09T02:55:20.308Z,21.84
2018-06-09T02:57:49.396Z,21.83
2018-06-09T03:00:18.496Z,21.86
2018-06-09T03:02:47.580Z,21.89
2018-06-09T03:05:16.684Z,21.85
2018-06-09T03:07:45.764Z,21.79
2018-06-09T03:10:14.867Z,21.73
2018-06-09T03:12:43.957Z,21.71
2018-06-09T03:15:13.064Z,21.70
2018-06-09T03:17:42.153Z,21.69
2018-06-09T03:20:11.260Z,21.71
2018-06-09T03:22:40.332Z,21.67
2018-06-09T03:25:09.454Z,21.63
2018-06-09T03:27:38.536Z,21.66
2018-06-09T03:30:07.636Z,21.45
2018-06-09T03:32:36.743Z,21.35
2018-06-09T03:35:05.852Z,21.30
2018-06-09T03:37:34.933Z,21.35
2018-06-09T03:40:04.044Z,21.42
2018-06-09T03:42:33.136Z,21.39
2018-06-09T03:45:02.218Z,21.42
2018-06-09T03:47:31.312Z,21.56
2018-06-09T03:50:00.385Z,21.55
2018-06-09T03:52:29.481Z,21.52
2018-06-09T03:54:58.553Z,21.56
2018-06-09T03:57:27.652Z,21.53
2018-06-09T03:59:56.720Z,21.55
2018-06-09T04:02:25.820Z,21.60
2018-06-09T04:04:54.898Z,21.60
2018-06-09T04:07:23.996Z,21.64
2018-06-09T04:09:53.073Z,21.47
2018-06-09T04:12:22.164Z,21.49
2018-06-09T04:14:51.245Z,21.50
2018-06-09T04:17:20.343Z,21.56
2018-06-09T04:19:49.416Z,21.69
2018-06-09T04:22:18.503Z,21.67
2018-06-09T04:24:47.578Z,21.53
2018-06-09T04:27:16.668Z,21.52
2018-06-09T04:29:45.737Z,21.42
2018-06-09T04:32:14.837Z,21.53
2018-06-09T04:34:43.908Z,21.64
2018-06-09T04:37:13.005Z,21.69
2018-06-09T04:39:42.080Z,21.68
2018-06-09T04:42:11.206Z,21.80
2018-06-09T04:44:40.284Z,21.87
2018-06-09T04:47:09.384Z,21.81
2018-06-09T04:49:38.476Z,21.82
2018-06-09T04:52:07.623Z,21.85
2018-06-09T04:54:36.669Z,21.91
2018-06-09T04:57:05.781Z,22.00
2018-06-09T04:59:34.860Z,22.06
2018-06-09T05:02:04.252Z,22.12
2018-06-09T05:04:33.360Z,22.18
2018-06-09T05:07:02.440Z,22.19
2018-06-09T05:09:31.545Z,22.16
2018-06-09T05:12:00.642Z,22.14
2018-06-09T05:14:29.760Z,22.13
2018-06-09T05:16:58.957Z,22.15
2018-06-09T05:19:28.068Z,22.15
2018-06-09T05:21:57.152Z,22.21
2018-06-09T05:24:26.273Z,22.21
2018-06-09T05:26:55.356Z,22.21
2018-06-09T05:29:24.465Z,22.22
2018-06-09T05:31:53.545Z,22.25
2018-06-09T05:34:22.664Z,22.24
2018-06-09T05:36:51.748Z,22.25
2018-06-09T05:39:20.856Z,22.26
2018-06-09T05:41:49.971Z,22.29
2018-06-09T05:44:19.150Z,22.27
2018-06-09T05:46:48.236Z,22.28
2018-06-09T05:49:17.346Z,22.12
2018-06-09T05:51:46.431Z,22.19
2018-06-09T05:54:15.549Z,22.26
2018-06-09T05:56:44.636Z,22.33
2018-06-09T05:59:13.745Z,22.31
2018-06-09T06:01:42.839Z,22.29
2018-06-09T06:04:13.036Z,22.30
2018-06-09T06:06:42.166Z,22.35
2018-06-09T06:09:11.297Z,22.30
2018-06-09T06:11:40.384Z,22.36
2018-06-09T06:14:09.476Z,22.46
2018-06-09T06:16:38.628Z,22.39
2018-06-09T06:19:07.716Z,22.47
2018-06-09T06:21:36.836Z,22.50
2018-06-09T06:24:05.921Z,22.53
2018-06-09T06:26:35.048Z,22.53
2018-06-09T06:29:04.129Z,22.51
2018-06-09T06:31:33.228Z,22.54
2018-06-09T06:34:02.313Z,22.59
2018-06-09T06:36:31.416Z,22.54
2018-06-09T06:39:00.497Z,22.67
2018-06-09T06:41:29.620Z,22.79
2018-06-09T06:43:58.713Z,22.78
2018-06-09T06:46:27.816Z,22.84
2018-06-09T06:48:56.945Z,22.96
2018-06-09T06:51:26.048Z,23.04
2018-06-09T06:53:55.148Z,23.12
2018-06-09T06:56:24.263Z,23.19
2018-06-09T06:58:53.385Z,23.14
2018-06-09T07:01:22.496Z,23.09
2018-06-09T07:03:51.580Z,23.09
2018-06-09T07:06:20.697Z,23.11
2018-06-09T07:08:49.780Z,23.12
2018-06-09T07:11:18.900Z,23.17
2018-06-09T07:13:47.992Z,23.23
2018-06-09T07:16:17.098Z,23.26
2018-06-09T07:18:46.212Z,23.32
2018-06-09T07:21:15.340Z,23.22
2018-06-09T07:23:44.559Z,23.28
2018-06-09T07:26:13.647Z,23.28
2018-06-09T07:28:43.773Z,23.42
2018-06-09T07:31:12.889Z,23.48
2018-06-09T07:33:42.004Z,23.52
2018-06-09T07:36:11.113Z,23.63
2018-06-09T07:38:40.248Z,23.70
2018-06-09T07:41:09.428Z,23.67
2018-06-09T07:43:38.529Z,23.65
2018-06-09T07:46:07.615Z,23.74
2018-06-09T07:48:36.724Z,23.86
2018-06-09T07:51:05.818Z,23.89
2018-06-09T07:53:34.918Z,23.85
2018-06-09T07:56:04.008Z,23.92
2018-06-09T07:58:33.203Z,23.94
2018-06-09T08:01:03.674Z,24.01
2018-06-09T08:03:32.772Z,24.06
2018-06-09T08:06:01.873Z,24.03
2018-06-09T08:08:30.988Z,23.93
2018-06-09T08:11:00.077Z,23.92
2018-06-09T08:13:29.188Z,24.06
2018-06-09T08:15:58.368Z,24.22
2018-06-09T08:18:27.495Z,24.37
2018-06-09T08:20:56.582Z,24.53
2018-06-09T08:23:25.741Z,24.63
2018-06-09T08:25:54.940Z,24.89
2018-06-09T08:28:24.048Z,25.08
2018-06-09T08:30:53.739Z,25.34
2018-06-09T08:33:22.814Z,25.47
2018-06-09T08:35:51.917Z,25.53
2018-06-09T08:38:21.006Z,25.49
2018-06-09T08:40:51.399Z,25.49
2018-06-09T08:43:20.488Z,25.45
2018-06-09T08:45:50.909Z,25.55
2018-06-09T08:48:20.045Z,25.61
2018-06-09T08:50:51.279Z,25.71
2018-06-09T08:53:20.623Z,25.75
2018-06-09T08:55:50.968Z,25.75
2018-06-09T08:58:20.168Z,25.76
2018-06-09T09:00:49.330Z,25.60
2018-06-09T09:03:18.529Z,25.33
2018-06-09T09:05:47.645Z,25.34
2018-06-09T09:08:16.725Z,25.45
2018-06-09T09:10:45.858Z,25.68
2018-06-09T09:13:15.980Z,25.73
2018-06-09T09:17:40.382Z,25.76
2018-06-09T09:20:10.609Z,26.03
2018-06-09T09:22:40.332Z,26.30
2018-06-09T09:25:10.960Z,26.45
2018-06-09T09:27:41.014Z,26.64
2018-06-09T09:30:10.292Z,26.60
2018-06-09T09:32:39.521Z,26.38
2018-06-09T09:35:10.171Z,26.48
2018-06-09T09:37:40.417Z,26.52
2018-06-09T09:40:09.724Z,26.65
2018-06-09T09:42:39.423Z,26.81
2018-06-09T09:45:08.566Z,26.87
2018-06-09T09:47:37.732Z,26.97
2018-06-09T09:50:06.852Z,27.13
2018-06-09T09:52:36.000Z,27.30
2018-06-09T09:55:05.133Z,27.37
2018-06-09T09:57:45.691Z,27.39
2018-06-09T10:00:18.929Z,27.33
2018-06-09T10:02:48.376Z,27.41
2018-06-09T10:05:17.739Z,27.50
2018-06-09T10:07:46.912Z,27.59
2018-06-09T10:10:16.057Z,27.62
2018-06-09T10:12:45.275Z,27.53
2018-06-09T10:15:14.496Z,27.64
2018-06-09T10:17:43.696Z,27.69
2018-06-09T10:20:12.867Z,27.79
2018-06-09T10:22:41.973Z,27.85
2018-06-09T10:25:11.061Z,27.92
2018-06-09T10:27:40.181Z,27.79
2018-06-09T10:30:09.308Z,27.76
2018-06-09T10:32:38.414Z,27.86
2018-06-09T10:35:07.555Z,27.92
2018-06-09T10:37:36.772Z,28.03
2018-06-09T10:40:05.897Z,28.13
2018-06-09T10:42:35.008Z,28.20
2018-06-09T10:45:04.201Z,28.23
2018-06-09T10:47:33.292Z,28.25
2018-06-09T10:50:02.397Z,28.23
2018-06-09T10:52:31.506Z,28.32
2018-06-09T10:55:00.620Z,28.34
2018-06-09T10:57:29.734Z,28.38
2018-06-09T10:59:58.904Z,28.46
2018-06-09T11:02:28.072Z,28.59
2018-06-09T11:04:57.188Z,28.59
2018-06-09T11:07:27.851Z,28.58
2018-06-09T11:09:57.000Z,28.49
2018-06-09T11:12:26.088Z,28.59
2018-06-09T11:14:55.207Z,28.78
2018-06-09T11:17:24.378Z,29.01
2018-06-09T11:19:53.481Z,29.12
2018-06-09T11:22:22.584Z,29.14
2018-06-09T11:24:51.685Z,29.14
2018-06-09T11:27:20.760Z,29.23
2018-06-09T11:29:49.852Z,29.36
2018-06-09T11:32:18.945Z,29.36
2018-06-09T11:34:48.053Z,29.37
2018-06-09T11:37:17.228Z,29.42
2018-06-09T11:39:46.436Z,29.46
2018-06-09T11:42:15.618Z,29.54
2018-06-09T11:44:44.833Z,29.55
2018-06-09T11:47:14.121Z,29.62
2018-06-09T11:49:43.209Z,29.70
2018-06-09T11:52:12.307Z,29.73
2018-06-09T11:54:41.407Z,29.62
2018-06-09T11:57:10.514Z,29.54
2018-06-09T11:59:39.589Z,29.59
2018-06-09T12:02:08.668Z,29.65
2018-06-09T12:04:37.744Z,29.76
2018-06-09T12:07:06.894Z,29.80
2018-06-09T12:09:35.988Z,29.83
2018-06-09T12:12:05.176Z,29.90
2018-06-09T12:14:34.251Z,30.00
2018-06-09T12:17:03.390Z,30.13
2018-06-09T12:19:32.473Z,30.09
2018-06-09T12:22:01.564Z,30.09
2018-06-09T12:24:30.640Z,30.06
2018-06-09T12:26:59.849Z,30.24
2018-06-09T12:29:29.604Z,30.26
2018-06-09T12:31:58.751Z,30.38
2018-06-09T12:34:27.848Z,30.45
2018-06-09T12:36:56.940Z,30.53
2018-06-09T12:39:26.040Z,30.54
2018-06-09T12:41:55.224Z,30.59
2018-06-09T12:44:24.311Z,30.58
2018-06-09T12:46:54.236Z,30.49
2018-06-09T12:49:23.304Z,30.59
2018-06-09T12:51:52.401Z,30.66
2018-06-09T12:54:21.480Z,30.77
2018-06-09T12:56:50.606Z,30.88
2018-06-09T12:59:19.688Z,30.93
2018-06-09T13:01:48.912Z,31.05
2018-06-09T13:04:17.988Z,31.08
2018-06-09T13:06:47.088Z,31.21
2018-06-09T13:09:16.192Z,31.19
2018-06-09T13:11:45.356Z,31.24
2018-06-09T13:14:14.445Z,31.26
2018-06-09T13:16:43.511Z,31.21
2018-06-09T13:19:13.840Z,31.16
2018-06-09T13:21:41.741Z,31.21
2018-06-09T13:24:10.832Z,31.36
2018-06-09T13:26:39.905Z,31.40
2018-06-09T13:29:08.997Z,31.46
2018-06-09T13:31:38.075Z,31.42
2018-06-09T13:34:07.165Z,31.54
2018-06-09T13:36:37.124Z,31.54
2018-06-09T13:39:07.592Z,31.56
2018-06-09T13:41:36.777Z,31.62
2018-06-09T13:44:05.895Z,31.63
2018-06-09T13:46:34.973Z,31.73
2018-06-09T13:49:04.127Z,31.78
2018-06-09T13:51:33.223Z,31.68
2018-06-09T13:54:02.336Z,31.73
2018-06-09T13:56:31.408Z,31.75
2018-06-09T13:59:00.500Z,31.79
2018-06-09T14:01:29.608Z,31.79
2018-06-09T14:03:58.700Z,31.90
2018-06-09T14:06:27.877Z,31.86
2018-06-09T14:08:56.984Z,31.88
2018-06-09T14:11:26.072Z,32.09
2018-06-09T14:13:55.181Z,32.19
2018-06-09T14:16:24.280Z,32.17
2018-06-09T14:18:53.380Z,32.15
2018-06-09T14:21:22.458Z,32.21
2018-06-09T14:23:51.571Z,32.25
2018-06-09T14:26:20.748Z,32.23
2018-06-09T14:28:49.844Z,32.20
2018-06-09T14:31:18.948Z,32.23
2018-06-09T14:33:48.023Z,32.17
2018-06-09T14:36:17.135Z,32.11
2018-06-09T14:38:46.308Z,32.00
2018-06-09T14:41:15.420Z,31.94
2018-06-09T14:43:44.600Z,31.86
2018-06-09T14:46:14.449Z,31.95
2018-06-09T14:48:43.600Z,31.98
2018-06-09T14:51:12.694Z,31.85
2018-06-09T14:53:41.843Z,31.98
2018-06-09T14:56:10.924Z,31.90
2018-06-09T14:58:40.009Z,31.86
2018-06-09T15:01:09.104Z,31.85
2018-06-09T15:03:38.180Z,31.94
2018-06-09T15:06:07.405Z,31.91
2018-06-09T15:08:36.499Z,31.88
2018-06-09T15:11:05.604Z,31.80
2018-06-09T15:13:34.675Z,31.88
2018-06-09T15:16:03.785Z,31.80
2018-06-09T15:18:32.860Z,31.72
2018-06-09T15:21:01.972Z,31.72
2018-06-09T15:23:31.064Z,31.82
2018-06-09T15:26:00.164Z,31.87
2018-06-09T15:28:29.312Z,31.91
2018-06-09T15:30:58.421Z,31.94
2018-06-09T15:33:27.504Z,31.85
2018-06-09T15:35:56.616Z,31.81
2018-06-09T15:38:25.705Z,31.88
2018-06-09T15:40:54.900Z,31.95
2018-06-09T15:43:24.009Z,31.88
2018-06-09T15:45:53.108Z,31.92
2018-06-09T15:48:22.184Z,32.01
2018-06-09T15:50:51.291Z,31.96
2018-06-09T15:53:20.475Z,32.04
2018-06-09T15:55:49.793Z,31.89
2018-06-09T15:58:19.067Z,31.79
2018-06-09T16:00:48.802Z,31.85
2018-06-09T16:03:17.967Z,32.04
2018-06-09T16:05:47.040Z,31.92
2018-06-09T16:08:16.143Z,31.85
2018-06-09T16:10:45.208Z,31.83
2018-06-09T16:13:14.316Z,31.88
2018-06-09T16:15:43.396Z,31.90
2018-06-09T16:18:12.484Z,31.95
2018-06-09T16:20:41.558Z,31.88
2018-06-09T16:23:10.724Z,31.90
2018-06-09T16:25:39.797Z,32.04
2018-06-09T16:28:08.903Z,32.03
2018-06-09T16:30:37.967Z,32.10
2018-06-09T16:33:07.068Z,31.99
2018-06-09T16:35:36.136Z,32.02
2018-06-09T16:38:05.320Z,31.99
2018-06-09T16:40:34.460Z,32.03
2018-06-09T16:43:03.628Z,32.03
2018-06-09T16:45:32.775Z,31.97
2018-06-09T16:48:01.881Z,31.93
2018-06-09T16:50:31.536Z,31.90
2018-06-09T16:53:00.640Z,31.88
2018-06-09T16:55:29.738Z,31.84
2018-06-09T16:57:58.883Z,31.71
2018-06-09T17:00:27.925Z,31.64
2018-06-09T17:02:57.004Z,31.69
2018-06-09T17:05:26.129Z,31.73
2018-06-09T17:07:55.212Z,31.84
2018-06-09T17:10:24.328Z,31.79
2018-06-09T17:12:53.412Z,31.77
2018-06-09T17:15:22.592Z,31.82
2018-06-09T17:17:51.672Z,31.85
2018-06-09T17:20:20.812Z,31.89
2018-06-09T17:22:50.065Z,32.00
2018-06-09T17:25:19.152Z,32.04
2018-06-09T17:27:48.282Z,32.09
2018-06-09T17:30:17.383Z,32.15
2018-06-09T17:32:46.565Z,32.24
2018-06-09T17:35:15.680Z,32.34
2018-06-09T17:37:44.784Z,32.32
2018-06-09T17:40:14.696Z,32.28
2018-06-09T17:42:43.879Z,32.29
2018-06-09T17:45:12.980Z,32.26
2018-06-09T17:47:42.057Z,32.06
2018-06-09T17:50:11.172Z,31.94
2018-06-09T17:52:40.357Z,31.87
2018-06-09T17:55:09.460Z,31.72
2018-06-09T17:57:38.545Z,31.67
2018-06-09T18:00:07.705Z,31.47
2018-06-09T18:02:36.804Z,31.26
2018-06-09T18:05:05.892Z,31.18
2018-06-09T18:07:35.048Z,31.11
2018-06-09T18:10:04.240Z,31.08
2018-06-09T18:12:33.593Z,31.10
2018-06-09T18:15:02.707Z,31.00
2018-06-09T18:17:31.820Z,30.85
2018-06-09T18:20:01.037Z,30.64
2018-06-09T18:22:30.140Z,30.49
2018-06-09T18:24:59.247Z,30.46
2018-06-09T18:27:28.364Z,30.43
2018-06-09T18:29:57.981Z,30.19
2018-06-09T18:32:27.084Z,30.12
2018-06-09T18:34:56.171Z,30.16
2018-06-09T18:37:25.281Z,30.05
2018-06-09T18:39:54.381Z,29.94
2018-06-09T18:42:23.499Z,29.85
2018-06-09T18:44:52.577Z,29.88
2018-06-09T18:47:21.700Z,29.83
2018-06-09T18:49:50.793Z,29.83
2018-06-09T18:52:19.901Z,29.84
2018-06-09T18:54:49.184Z,29.77
2018-06-09T18:57:18.288Z,29.62
2018-06-09T18:59:47.416Z,29.47
2018-06-09T19:02:16.524Z,29.19
2018-06-09T19:04:45.700Z,29.17
2018-06-09T19:07:14.808Z,29.14
2018-06-09T19:09:43.900Z,29.17
2018-06-09T19:12:13.112Z,28.94
2018-06-09T19:14:42.188Z,28.86
2018-06-09T19:17:11.320Z,28.96
2018-06-09T19:19:41.211Z,29.00
2018-06-09T19:22:10.342Z,28.80
2018-06-09T19:24:39.396Z,28.83
2018-06-09T19:27:08.498Z,28.84
2018-06-09T19:29:37.585Z,28.92
2018-06-09T19:32:06.672Z,28.65
2018-06-09T19:34:35.876Z,28.70
2018-06-09T19:37:05.025Z,28.79
2018-06-09T19:39:34.137Z,28.86
2018-06-09T19:42:03.282Z,28.77
2018-06-09T19:44:32.506Z,28.74
2018-06-09T19:47:01.586Z,28.78
2018-06-09T19:49:30.744Z,28.61
2018-06-09T19:51:59.872Z,28.54
2018-06-09T19:54:28.951Z,28.59
2018-06-09T19:56:58.294Z,28.59
2018-06-09T19:59:27.396Z,28.61
2018-06-09T20:01:56.488Z,28.45
2018-06-09T20:04:25.624Z,28.02
2018-06-09T20:06:54.696Z,27.95
2018-06-09T20:09:23.785Z,28.09
2018-06-09T20:11:52.845Z,28.08
2018-06-09T20:14:22.116Z,28.01
2018-06-09T20:16:51.185Z,28.07
2018-06-09T20:19:20.301Z,28.00
2018-06-09T20:21:49.513Z,28.01
2018-06-09T20:24:18.706Z,28.18
2018-06-09T20:26:47.777Z,28.16
2018-06-09T20:29:16.885Z,28.02
2018-06-09T20:31:45.951Z,27.92
2018-06-09T20:34:15.020Z,27.99
2018-06-09T20:36:44.133Z,27.85
2018-06-09T20:39:13.188Z,27.83
2018-06-09T20:41:42.303Z,27.83
2018-06-09T20:44:11.402Z,27.79
2018-06-09T20:46:40.489Z,27.70
2018-06-09T20:49:09.557Z,27.61
2018-06-09T20:51:38.663Z,27.60
2018-06-09T20:54:07.738Z,27.63
2018-06-09T20:56:36.850Z,27.50
2018-06-09T20:59:05.931Z,27.44
2018-06-09T21:01:35.020Z,27.43
2018-06-09T21:04:04.110Z,27.41
2018-06-09T21:06:33.266Z,27.36
2018-06-09T21:09:02.329Z,27.10
2018-06-09T21:11:31.462Z,27.00
2018-06-09T21:14:00.548Z,27.09
2018-06-09T21:16:29.641Z,27.08
2018-06-09T21:18:58.720Z,26.90
2018-06-09T21:21:27.869Z,26.92
2018-06-09T21:23:56.928Z,26.73
2018-06-09T21:26:30.217Z,26.69
2018-06-09T21:28:59.269Z,26.64
2018-06-09T21:31:34.330Z,26.73
2018-06-09T21:34:14.665Z,26.72
2018-06-09T21:36:49.004Z,26.64
2018-06-09T21:39:23.500Z,26.49
2018-06-09T21:41:58.336Z,26.57
2018-06-09T21:44:32.736Z,26.66
2018-06-09T21:47:01.912Z,26.59
2018-06-09T21:49:30.990Z,26.65
2018-06-09T21:52:00.078Z,26.63
2018-06-09T21:54:29.166Z,26.62
2018-06-09T21:56:58.240Z,26.60
2018-06-09T21:59:27.331Z,26.62
2018-06-09T22:01:56.425Z,26.57
2018-06-09T22:04:25.484Z,26.34
2018-06-09T22:06:54.576Z,26.18
2018-06-09T22:09:23.649Z,26.28
2018-06-09T22:11:52.781Z,26.41
2018-06-09T22:14:21.857Z,26.40
2018-06-09T22:16:50.971Z,26.28
2018-06-09T22:19:20.036Z,26.16
2018-06-09T22:21:49.104Z,26.15
2018-06-09T22:24:18.192Z,26.10
2018-06-09T22:26:47.251Z,26.18
2018-06-09T22:29:16.340Z,26.16
2018-06-09T22:31:45.412Z,26.18
2018-06-09T22:34:14.504Z,26.12
2018-06-09T22:36:43.588Z,26.14
2018-06-09T22:39:12.675Z,25.63
2018-06-09T22:41:41.804Z,25.21
2018-06-09T22:44:10.876Z,25.30
2018-06-09T22:46:39.996Z,25.47
2018-06-09T22:49:09.092Z,25.46
2018-06-09T22:51:38.175Z,25.52
2018-06-09T22:54:07.348Z,25.56
2018-06-09T22:56:36.428Z,25.60
2018-06-09T22:59:05.529Z,25.65
2018-06-09T23:01:34.609Z,25.68
2018-06-09T23:04:03.705Z,25.31
2018-06-09T23:06:32.796Z,25.11
2018-06-09T23:09:02.289Z,25.00
2018-06-09T23:11:31.390Z,25.02
2018-06-09T23:14:00.484Z,24.91
2018-06-09T23:16:29.577Z,24.96
2018-06-09T23:18:58.689Z,24.89
2018-06-09T23:21:27.780Z,24.91
2018-06-09T23:23:56.892Z,24.94
2018-06-09T23:26:25.968Z,24.88
2018-06-09T23:28:55.077Z,24.78
2018-06-09T23:31:24.172Z,24.69
2018-06-09T23:33:53.281Z,24.54
2018-06-09T23:36:22.355Z,24.54
2018-06-09T23:38:51.456Z,24.64
2018-06-09T23:41:20.531Z,24.71
2018-06-09T23:43:49.665Z,24.79
2018-06-09T23:46:18.743Z,24.80
2018-06-09T23:48:47.855Z,24.82
2018-06-09T23:51:16.928Z,24.86
2018-06-09T23:53:46.016Z,24.74
2018-06-09T23:56:15.130Z,24.58
2018-06-09T23:58:44.205Z,24.52
